Time;durP1;ratioP1;P1;durP2;ratioP2;P2;SDS_P1;SDS_P2;PMS_P1;PMS_P2;Temp;Humidity;BMP_temperature;BMP_pressure;BME280_temperature;BME280_humidity;BME280_pressure;Samples;Min_cycle;Max_cycle;Signal;HPM_P1;HPM_P2
2021/12/02 00:01:21;;;;;;;3.97;0.60;;;3.90;99.90;;;;;;4973055;28;20423;-64
2021/12/02 00:03:48;;;;;;;1.57;0.63;;;4.00;99.90;;;;;;4983829;28;20422;-64
2021/12/02 00:06:16;;;;;;;2.07;1.00;;;4.00;99.90;;;;;;4968503;28;20188;-64
2021/12/02 00:08:42;;;;;;;4.03;1.10;;;4.00;99.90;;;;;;4981366;28;20485;-64
2021/12/02 00:11:09;;;;;;;2.13;0.70;;;3.90;99.90;;;;;;4974015;28;20481;-65
2021/12/02 00:16:23;;;;;;;1.10;0.50;;;3.70;99.90;;;;;;4968204;28;20486;-65
2021/12/02 00:21:26;;;;;;;1.30;0.60;;;3.70;99.90;;;;;;4987234;28;20802;-64
2021/12/02 00:24:05;;;;;;;1.20;0.50;;;3.70;99.90;;;;;;4985951;28;20175;-64
2021/12/02 00:26:32;;;;;;;1.30;0.50;;;3.60;99.90;;;;;;4982936;28;21081;-64
2021/12/02 00:29:00;;;;;;;1.40;0.50;;;3.60;99.90;;;;;;4982945;28;20499;-64
2021/12/02 00:31:31;;;;;;;1.73;0.70;;;3.60;99.90;;;;;;4984671;28;20426;-65
2021/12/02 00:34:01;;;;;;;1.63;0.73;;;3.60;99.90;;;;;;4986303;28;20418;-64
2021/12/02 00:36:28;;;;;;;4.73;0.90;;;3.60;99.90;;;;;;4978408;28;20425;-64
2021/12/02 00:38:55;;;;;;;1.40;0.77;;;3.70;99.90;;;;;;4977542;28;20989;-64
2021/12/02 00:41:25;;;;;;;4.03;0.70;;;3.70;99.90;;;;;;4988119;28;21135;-64
2021/12/02 00:43:52;;;;;;;1.40;0.47;;;3.60;99.90;;;;;;4984174;28;20985;-64
2021/12/02 00:46:20;;;;;;;1.20;0.50;;;3.60;99.90;;;;;;4981911;28;20449;-64
2021/12/02 00:48:47;;;;;;;1.20;0.50;;;3.70;99.90;;;;;;4973296;28;20510;-64
2021/12/02 00:51:14;;;;;;;5.83;0.87;;;3.70;99.90;;;;;;4984792;28;20935;-64
2021/12/02 00:53:44;;;;;;;1.30;0.57;;;3.70;99.90;;;;;;4974928;28;20436;-65
2021/12/02 00:56:13;;;;;;;1.10;0.50;;;3.70;99.90;;;;;;4979453;28;20442;-64
2021/12/02 00:58:39;;;;;;;1.10;0.50;;;3.70;99.90;;;;;;4983856;28;20424;-65
2021/12/02 01:01:06;;;;;;;1.20;0.60;;;3.70;99.90;;;;;;4987971;28;20477;-64
2021/12/02 01:03:36;;;;;;;6.00;0.80;;;3.70;99.90;;;;;;4970348;28;20452;-64
2021/12/02 01:06:05;;;;;;;1.10;0.50;;;3.70;99.90;;;;;;4971336;28;20439;-65
2021/12/02 01:08:33;;;;;;;2.50;0.60;;;3.70;99.90;;;;;;4986285;28;20454;-64
2021/12/02 01:10:59;;;;;;;4.20;1.03;;;3.70;99.90;;;;;;4986030;28;20419;-64
2021/12/02 01:13:24;;;;;;;1.10;0.40;;;3.60;99.90;;;;;;4981732;28;20473;-64
2021/12/02 01:15:50;;;;;;;2.30;0.63;;;3.60;99.90;;;;;;4983136;28;20207;-64
2021/12/02 01:18:16;;;;;;;1.77;0.77;;;3.60;99.90;;;;;;4986487;28;20222;-64
2021/12/02 01:20:47;;;;;;;1.23;0.53;;;3.60;99.90;;;;;;4981230;28;20879;-64
2021/12/02 01:23:15;;;;;;;1.10;0.40;;;3.60;99.90;;;;;;4978337;28;20505;-64
2021/12/02 01:25:40;;;;;;;1.30;0.50;;;3.50;99.90;;;;;;4974888;28;20444;-64
2021/12/02 01:28:07;;;;;;;1.30;0.63;;;3.40;99.90;;;;;;4977679;28;20434;-64
2021/12/02 01:30:33;;;;;;;1.17;0.53;;;3.40;99.90;;;;;;4967610;28;20201;-64
2021/12/02 01:33:08;;;;;;;1.23;0.60;;;3.40;99.90;;;;;;4981153;28;20777;-65
2021/12/02 01:35:35;;;;;;;1.20;0.53;;;3.40;99.90;;;;;;4964899;28;20566;-65
2021/12/02 01:38:01;;;;;;;1.40;0.60;;;3.30;99.90;;;;;;4963291;28;20431;-64
2021/12/02 01:40:27;;;;;;;1.20;0.60;;;3.40;99.90;;;;;;4976165;28;20435;-64
2021/12/02 01:42:57;;;;;;;1.20;0.50;;;3.40;99.90;;;;;;4981149;28;20431;-64
2021/12/02 01:45:28;;;;;;;1.30;0.50;;;3.40;99.90;;;;;;4986257;28;20430;-63
2021/12/02 01:47:55;;;;;;;1.10;0.40;;;3.40;99.90;;;;;;4978336;28;20515;-63
2021/12/02 01:50:23;;;;;;;1.20;0.50;;;3.40;99.90;;;;;;4978414;28;20439;-64
2021/12/02 01:52:55;;;;;;;2.40;0.50;;;3.40;99.90;;;;;;4976902;28;20431;-64
2021/12/02 01:55:21;;;;;;;1.10;0.50;;;3.40;99.90;;;;;;4973967;28;20466;-64
2021/12/02 01:57:59;;;;;;;1.10;0.50;;;3.50;99.90;;;;;;4975219;28;20506;-64
2021/12/02 02:00:27;;;;;;;2.50;0.80;;;3.50;99.90;;;;;;4981600;28;20427;-64
2021/12/02 02:02:53;;;;;;;1.10;0.43;;;3.50;99.90;;;;;;4984663;28;20441;-64
2021/12/02 02:05:19;;;;;;;2.90;1.00;;;3.50;99.90;;;;;;4980652;28;20462;-64
2021/12/02 02:07:54;;;;;;;1.20;0.60;;;3.50;99.90;;;;;;4985439;28;20970;-64
2021/12/02 02:10:20;;;;;;;1.40;0.70;;;3.40;99.90;;;;;;4983464;28;20542;-64
2021/12/02 02:12:46;;;;;;;1.30;0.60;;;3.50;99.90;;;;;;4985463;28;20444;-65
2021/12/02 02:15:12;;;;;;;1.70;0.80;;;3.40;99.90;;;;;;4969332;28;20495;-64
2021/12/02 02:20:46;;;;;;;1.60;0.50;;;3.30;99.90;;;;;;4954872;28;20231;-64
2021/12/02 02:23:12;;;;;;;1.10;0.40;;;3.30;99.90;;;;;;4977083;28;20790;-64
2021/12/02 02:25:42;;;;;;;3.10;0.90;;;3.20;99.90;;;;;;4968591;28;20443;-64
2021/12/02 02:28:08;;;;;;;1.10;0.53;;;3.20;99.90;;;;;;4965436;28;20428;-64
2021/12/02 02:30:33;;;;;;;1.20;0.50;;;3.10;99.90;;;;;;4973797;28;20515;-64
2021/12/02 02:32:59;;;;;;;1.50;0.60;;;3.00;99.90;;;;;;4986788;28;20870;-64
2021/12/02 02:35:25;;;;;;;1.10;0.50;;;2.90;99.90;;;;;;4985218;28;20280;-64
2021/12/02 02:37:51;;;;;;;1.10;0.40;;;3.00;99.90;;;;;;4980024;28;20190;-64
2021/12/02 02:40:17;;;;;;;1.20;0.60;;;2.90;99.90;;;;;;4983145;28;20942;-64
2021/12/02 02:42:55;;;;;;;1.10;0.40;;;2.90;99.90;;;;;;4984138;28;20193;-64
2021/12/02 02:45:21;;;;;;;1.20;0.50;;;2.90;99.90;;;;;;4978471;28;21276;-64
2021/12/02 02:47:47;;;;;;;1.30;0.50;;;2.80;99.90;;;;;;4980411;28;20435;-64
2021/12/02 02:50:13;;;;;;;1.10;0.40;;;2.80;99.90;;;;;;4982753;28;20196;-64
2021/12/02 02:52:40;;;;;;;1.10;0.50;;;2.90;99.90;;;;;;4976980;28;20195;-64
2021/12/02 02:55:06;;;;;;;1.17;0.43;;;2.80;99.90;;;;;;4977896;28;20951;-64
2021/12/02 02:57:41;;;;;;;1.30;0.50;;;2.80;99.90;;;;;;4978020;28;20427;-64
2021/12/02 03:00:11;;;;;;;1.10;0.40;;;2.80;99.90;;;;;;4984873;28;20533;-65
2021/12/02 03:07:55;;;;;;;1.20;0.50;;;2.90;99.90;;;;;;4974123;28;21020;-65
2021/12/02 03:17:43;;;;;;;1.20;0.43;;;2.80;99.90;;;;;;4973503;28;20447;-64
2021/12/02 03:20:09;;;;;;;1.53;0.57;;;2.90;99.90;;;;;;4984657;28;20435;-64
2021/12/02 03:22:35;;;;;;;1.10;0.50;;;2.80;99.90;;;;;;4985116;28;20565;-65
2021/12/02 03:25:03;;;;;;;13.30;0.60;;;2.80;99.90;;;;;;4975895;28;20444;-64
2021/12/02 03:27:28;;;;;;;1.50;0.60;;;2.70;99.90;;;;;;4977305;28;20195;-64
2021/12/02 03:29:54;;;;;;;1.20;0.60;;;2.60;99.90;;;;;;4989548;28;20422;-64
2021/12/02 03:32:20;;;;;;;2.47;0.80;;;2.60;99.90;;;;;;4983258;28;20202;-65
2021/12/02 03:34:46;;;;;;;1.10;0.40;;;2.70;99.90;;;;;;4986773;28;20215;-64
2021/12/02 03:37:12;;;;;;;4.40;0.70;;;2.60;99.90;;;;;;4988148;28;20191;-64
2021/12/02 03:39:37;;;;;;;1.10;0.40;;;2.60;99.90;;;;;;4982879;28;20187;-64
2021/12/02 03:42:04;;;;;;;1.10;0.50;;;2.60;99.90;;;;;;4988312;28;20199;-64
2021/12/02 03:44:31;;;;;;;1.10;0.40;;;2.60;99.90;;;;;;4984516;28;20275;-64
2021/12/02 03:46:56;;;;;;;1.30;0.50;;;2.70;99.90;;;;;;4987703;28;20867;-64
2021/12/02 03:49:22;;;;;;;1.10;0.40;;;2.70;99.90;;;;;;4985912;28;20422;-65
2021/12/02 03:51:48;;;;;;;1.40;0.50;;;2.70;99.90;;;;;;4980150;28;20198;-64
2021/12/02 03:54:14;;;;;;;1.70;0.90;;;2.70;99.90;;;;;;4979743;28;21220;-65
2021/12/02 03:56:40;;;;;;;1.40;0.57;;;2.70;99.90;;;;;;4980073;28;20192;-64
2021/12/02 03:59:05;;;;;;;1.30;0.50;;;2.70;99.90;;;;;;4976379;28;20833;-64
2021/12/02 04:01:31;;;;;;;1.20;0.50;;;2.70;99.90;;;;;;4976748;28;20203;-65
2021/12/02 04:03:57;;;;;;;1.63;0.50;;;2.70;99.90;;;;;;4974554;28;20642;-65
2021/12/02 04:06:23;;;;;;;1.10;0.50;;;2.70;99.90;;;;;;4982864;28;20195;-65
2021/12/02 04:08:55;;;;;;;1.10;0.40;;;2.70;99.90;;;;;;4976936;28;20201;-65
2021/12/02 04:16:58;;;;;;;2.13;0.70;;;2.70;99.90;;;;;;4946873;28;20422;-65
2021/12/02 04:19:24;;;;;;;1.83;0.60;;;2.70;99.90;;;;;;4973674;28;20881;-65
2021/12/02 04:21:51;;;;;;;1.43;0.60;;;2.70;99.90;;;;;;4981197;28;21034;-64
2021/12/02 04:24:18;;;;;;;1.20;0.50;;;2.70;99.90;;;;;;4975202;28;20587;-64
2021/12/02 04:26:43;;;;;;;1.80;0.50;;;2.80;99.90;;;;;;4983491;28;20443;-64
2021/12/02 04:29:10;;;;;;;1.10;0.40;;;2.80;99.90;;;;;;4975103;28;20436;-65
2021/12/02 04:31:35;;;;;;;1.50;0.93;;;2.80;99.90;;;;;;4977136;28;20242;-64
2021/12/02 04:34:01;;;;;;;1.27;0.60;;;2.80;99.90;;;;;;4968389;28;20425;-64
2021/12/02 04:36:27;;;;;;;2.67;0.87;;;2.80;99.90;;;;;;4975264;28;20214;-64
2021/12/02 04:38:52;;;;;;;3.20;0.73;;;2.80;99.90;;;;;;4977995;28;20263;-65
2021/12/02 04:41:18;;;;;;;1.10;0.50;;;2.90;99.90;;;;;;4987299;28;20211;-64
2021/12/02 04:43:44;;;;;;;1.40;0.60;;;2.90;99.90;;;;;;4987059;28;20206;-64
2021/12/02 04:46:09;;;;;;;2.03;0.80;;;2.90;99.90;;;;;;4983108;28;20194;-64
2021/12/02 04:48:35;;;;;;;8.10;0.90;;;2.90;99.90;;;;;;4983390;28;20188;-64
2021/12/02 04:51:01;;;;;;;1.20;0.50;;;2.90;99.90;;;;;;4983567;28;20713;-64
2021/12/02 04:53:26;;;;;;;1.17;0.50;;;2.90;99.90;;;;;;4983679;28;20184;-64
2021/12/02 04:55:52;;;;;;;1.40;0.57;;;2.90;99.90;;;;;;4978799;28;20641;-64
2021/12/02 04:58:18;;;;;;;1.10;0.40;;;2.80;99.90;;;;;;4982754;28;20659;-64
2021/12/02 05:00:43;;;;;;;3.97;0.80;;;2.80;99.90;;;;;;4976154;28;20222;-64
2021/12/02 05:03:09;;;;;;;1.20;0.57;;;2.80;99.90;;;;;;4987613;28;20262;-65
2021/12/02 05:05:35;;;;;;;1.57;0.50;;;2.80;99.90;;;;;;4976481;28;20192;-64
2021/12/02 05:08:03;;;;;;;1.80;0.60;;;2.80;99.90;;;;;;4975868;28;20953;-64
2021/12/02 05:10:28;;;;;;;1.70;0.70;;;2.80;99.90;;;;;;4977894;28;20663;-64
2021/12/02 05:12:54;;;;;;;7.33;1.10;;;2.80;99.90;;;;;;4986464;28;20419;-64
2021/12/02 05:15:20;;;;;;;1.80;0.80;;;2.80;99.90;;;;;;4984682;28;20593;-64
2021/12/02 05:17:45;;;;;;;2.37;0.80;;;2.80;99.90;;;;;;4981408;28;20330;-63
2021/12/02 05:20:11;;;;;;;3.20;1.20;;;2.90;99.90;;;;;;4986613;28;20180;-64
2021/12/02 05:22:37;;;;;;;2.07;1.10;;;2.80;99.90;;;;;;4986102;28;20184;-63
2021/12/02 05:25:03;;;;;;;2.67;0.87;;;2.90;99.90;;;;;;4980456;28;20244;-63
2021/12/02 05:27:29;;;;;;;3.00;0.60;;;2.80;99.90;;;;;;4981714;28;20983;-64
2021/12/02 05:29:55;;;;;;;2.50;0.90;;;2.80;99.90;;;;;;4984381;28;20438;-64
2021/12/02 05:32:21;;;;;;;3.30;1.10;;;2.70;99.90;;;;;;4978904;28;20218;-64
2021/12/02 05:34:48;;;;;;;2.07;1.20;;;2.70;99.90;;;;;;4977821;28;20466;-64
2021/12/02 05:37:15;;;;;;;2.23;1.20;;;2.70;99.90;;;;;;4969118;28;20179;-63
2021/12/02 05:39:41;;;;;;;2.30;0.70;;;2.70;99.90;;;;;;4977176;28;20527;-64
2021/12/02 05:42:07;;;;;;;1.97;1.07;;;2.70;99.90;;;;;;4978265;28;20430;-64
2021/12/02 05:44:33;;;;;;;3.37;1.67;;;2.70;99.90;;;;;;4975923;28;20438;-64
2021/12/02 05:46:58;;;;;;;3.33;1.53;;;2.70;99.90;;;;;;4976896;28;20285;-64
2021/12/02 05:49:24;;;;;;;2.03;1.07;;;2.70;99.90;;;;;;4974021;28;20933;-63
2021/12/02 05:51:50;;;;;;;2.17;1.17;;;2.70;99.90;;;;;;4971731;28;20186;-63
2021/12/02 05:54:16;;;;;;;3.33;1.27;;;2.70;99.90;;;;;;4967723;28;20215;-64
2021/12/02 05:56:41;;;;;;;1.30;0.60;;;2.80;99.90;;;;;;4976404;28;20176;-63
2021/12/02 05:59:08;;;;;;;2.43;1.23;;;2.80;99.90;;;;;;4971635;28;20590;-63
2021/12/02 06:01:33;;;;;;;3.93;1.90;;;2.80;99.90;;;;;;4969461;28;20709;-63
2021/12/02 06:03:59;;;;;;;1.63;0.93;;;2.80;99.90;;;;;;4969514;28;20494;-63
2021/12/02 06:06:27;;;;;;;3.00;1.00;;;2.80;99.90;;;;;;4971419;28;20188;-63
2021/12/02 06:08:52;;;;;;;1.50;0.80;;;2.80;99.90;;;;;;4983376;28;20439;-64
2021/12/02 06:11:18;;;;;;;2.27;1.30;;;2.70;99.90;;;;;;4986564;28;20435;-64
2021/12/02 06:13:46;;;;;;;2.10;0.93;;;2.70;99.90;;;;;;4985487;28;20587;-64
2021/12/02 06:16:12;;;;;;;2.80;0.93;;;2.60;99.90;;;;;;4978382;28;20247;-64
2021/12/02 06:18:38;;;;;;;2.90;1.03;;;2.60;99.90;;;;;;4990819;28;20486;-64
2021/12/02 06:21:03;;;;;;;3.13;1.10;;;2.60;99.90;;;;;;4991305;28;20426;-64
2021/12/02 06:23:29;;;;;;;1.30;0.67;;;2.50;99.90;;;;;;4986161;28;20647;-64
2021/12/02 06:25:55;;;;;;;1.60;0.67;;;2.50;99.90;;;;;;4985061;28;20198;-64
2021/12/02 06:28:20;;;;;;;4.10;0.93;;;2.40;99.90;;;;;;4988044;28;20188;-64
2021/12/02 06:30:47;;;;;;;1.83;0.77;;;2.40;99.90;;;;;;4988709;28;20258;-64
2021/12/02 06:33:13;;;;;;;1.47;0.60;;;2.40;99.90;;;;;;4985095;28;20250;-64
2021/12/02 06:35:40;;;;;;;1.97;0.90;;;2.40;99.90;;;;;;4976291;28;20470;-64
2021/12/02 06:38:06;;;;;;;3.07;0.67;;;2.30;99.90;;;;;;4975225;28;20516;-64
2021/12/02 06:40:34;;;;;;;1.50;0.67;;;2.40;99.90;;;;;;4973677;28;20433;-64
2021/12/02 06:43:01;;;;;;;1.93;0.60;;;2.30;99.90;;;;;;4973243;28;20465;-64
2021/12/02 06:45:27;;;;;;;4.33;0.80;;;2.30;99.90;;;;;;4981746;28;20451;-64
2021/12/02 06:47:57;;;;;;;1.80;0.60;;;2.30;99.90;;;;;;4981120;28;20486;-64
2021/12/02 06:50:23;;;;;;;5.47;1.43;;;2.30;99.90;;;;;;4990323;28;20442;-65
2021/12/02 06:52:50;;;;;;;1.57;0.80;;;2.30;99.90;;;;;;4978791;28;20470;-65
2021/12/02 06:55:18;;;;;;;2.80;1.00;;;2.30;99.90;;;;;;4979717;28;20692;-65
2021/12/02 06:57:44;;;;;;;1.30;0.60;;;2.20;99.90;;;;;;4981443;28;20473;-65
2021/12/02 07:00:12;;;;;;;1.70;0.73;;;2.20;99.90;;;;;;4986587;28;20565;-64
2021/12/02 07:02:39;;;;;;;2.43;1.20;;;2.10;99.90;;;;;;4984711;28;20435;-64
2021/12/02 07:05:06;;;;;;;1.30;0.70;;;2.10;99.90;;;;;;4983135;28;20470;-66
2021/12/02 07:07:36;;;;;;;2.23;0.80;;;2.10;99.90;;;;;;4985350;28;20437;-66
2021/12/02 07:10:04;;;;;;;2.27;0.93;;;2.10;99.90;;;;;;4980598;28;20507;-66
2021/12/02 07:12:33;;;;;;;2.17;0.90;;;2.10;99.90;;;;;;4987869;28;20516;-65
2021/12/02 07:15:09;;;;;;;1.90;1.00;;;2.10;99.90;;;;;;4983406;28;20921;-66
2021/12/02 07:17:35;;;;;;;1.40;0.70;;;2.10;99.90;;;;;;4977517;28;20453;-65
2021/12/02 07:20:02;;;;;;;2.90;0.60;;;2.10;99.90;;;;;;4983391;28;20443;-66
2021/12/02 07:22:28;;;;;;;5.60;0.70;;;2.10;99.90;;;;;;4984097;28;20206;-65
2021/12/02 07:24:54;;;;;;;1.40;0.50;;;2.10;99.90;;;;;;4968820;28;20909;-65
2021/12/02 07:27:19;;;;;;;2.80;1.00;;;2.20;99.90;;;;;;4964708;28;20244;-65
2021/12/02 07:29:45;;;;;;;1.60;0.73;;;2.10;99.90;;;;;;4984820;28;20196;-65
2021/12/02 07:32:11;;;;;;;1.90;0.60;;;2.10;99.90;;;;;;4980682;28;20196;-65
2021/12/02 07:34:43;;;;;;;4.63;0.60;;;2.20;99.90;;;;;;4988818;28;20216;-65
2021/12/02 07:37:11;;;;;;;1.40;0.70;;;2.10;99.90;;;;;;4984984;28;20267;-65
2021/12/02 07:39:37;;;;;;;2.13;0.87;;;2.10;99.90;;;;;;4985701;28;20451;-65
2021/12/02 07:42:03;;;;;;;3.97;1.00;;;2.10;99.90;;;;;;4982598;28;20486;-65
2021/12/02 07:44:28;;;;;;;5.00;1.03;;;2.20;99.90;;;;;;4988980;28;20327;-65
2021/12/02 07:46:56;;;;;;;1.43;0.70;;;2.10;99.90;;;;;;4982894;28;20430;-65
2021/12/02 07:49:21;;;;;;;3.60;0.80;;;2.20;99.90;;;;;;4982994;28;20188;-65
2021/12/02 07:51:50;;;;;;;2.40;1.17;;;2.20;99.90;;;;;;4975705;28;20439;-65
2021/12/02 07:54:17;;;;;;;2.70;1.13;;;2.20;99.90;;;;;;4980635;28;20188;-65
2021/12/02 07:56:46;;;;;;;1.30;0.70;;;2.20;99.90;;;;;;4986608;28;20458;-64
2021/12/02 07:59:19;;;;;;;20.03;1.00;;;2.20;99.90;;;;;;4983016;28;20435;-65
2021/12/02 08:01:45;;;;;;;1.73;0.50;;;2.20;99.90;;;;;;4975350;28;20553;-65
2021/12/02 08:04:11;;;;;;;1.73;0.77;;;2.20;99.90;;;;;;4972464;28;20960;-65
2021/12/02 08:06:37;;;;;;;1.50;0.60;;;2.20;99.90;;;;;;4977444;28;20435;-67
2021/12/02 08:09:03;;;;;;;3.37;1.23;;;2.20;99.90;;;;;;4971820;28;20222;-65
2021/12/02 08:11:30;;;;;;;2.07;0.63;;;2.20;99.90;;;;;;4970480;28;20195;-65
2021/12/02 08:13:57;;;;;;;3.00;1.17;;;2.40;99.90;;;;;;4987670;28;20434;-64
2021/12/02 08:16:22;;;;;;;2.10;0.83;;;2.40;99.90;;;;;;4977618;28;21261;-65
2021/12/02 08:18:48;;;;;;;2.80;0.77;;;2.40;99.90;;;;;;4963487;28;20467;-65
2021/12/02 08:21:14;;;;;;;1.80;0.83;;;2.40;99.90;;;;;;4971597;28;20238;-64
2021/12/02 08:23:39;;;;;;;2.07;0.83;;;2.40;99.90;;;;;;4984114;28;20200;-64
2021/12/02 08:26:05;;;;;;;1.20;0.60;;;2.50;99.90;;;;;;4981649;28;20274;-65
2021/12/02 08:28:31;;;;;;;1.20;0.60;;;2.60;99.90;;;;;;4986841;28;20200;-65
2021/12/02 08:30:58;;;;;;;2.27;1.23;;;2.60;99.90;;;;;;4983513;28;20188;-65
2021/12/02 08:33:24;;;;;;;6.27;1.37;;;2.70;99.90;;;;;;4985885;28;20190;-64
2021/12/02 08:35:49;;;;;;;1.43;0.60;;;2.80;99.90;;;;;;4975158;28;20537;-64
2021/12/02 08:38:18;;;;;;;1.37;0.77;;;2.90;99.90;;;;;;4982803;28;20440;-65
2021/12/02 08:40:47;;;;;;;2.43;1.27;;;2.80;99.90;;;;;;4983971;28;20515;-65
2021/12/02 08:43:13;;;;;;;6.90;1.37;;;2.90;99.90;;;;;;4979031;28;20439;-65
2021/12/02 08:45:41;;;;;;;1.47;0.73;;;2.90;99.90;;;;;;4984349;28;20450;-65
2021/12/02 08:48:07;;;;;;;1.40;0.67;;;3.00;99.90;;;;;;4981630;28;20443;-65
2021/12/02 08:50:34;;;;;;;2.53;0.70;;;3.20;99.90;;;;;;4980158;28;20423;-64
2021/12/02 08:53:02;;;;;;;4.03;1.37;;;3.30;99.90;;;;;;4972482;28;20444;-66
2021/12/02 08:55:31;;;;;;;1.53;0.77;;;3.50;99.90;;;;;;4984250;28;20482;-65
2021/12/02 08:57:57;;;;;;;2.13;0.60;;;3.60;99.90;;;;;;4977177;28;20892;-65
2021/12/02 09:00:27;;;;;;;1.43;0.70;;;3.70;99.90;;;;;;4983675;28;20445;-65
2021/12/02 09:02:53;;;;;;;1.57;0.77;;;3.70;99.90;;;;;;4966035;28;20493;-64
2021/12/02 09:05:19;;;;;;;1.67;0.80;;;3.70;99.90;;;;;;4971478;28;20446;-65
2021/12/02 09:07:46;;;;;;;1.60;0.70;;;3.70;99.90;;;;;;4979417;28;20428;-65
2021/12/02 09:10:11;;;;;;;2.77;0.97;;;3.70;99.90;;;;;;4982549;28;20461;-65
2021/12/02 09:12:37;;;;;;;2.00;0.70;;;3.70;99.90;;;;;;4985433;28;20435;-65
2021/12/02 09:15:05;;;;;;;1.30;0.70;;;3.80;99.90;;;;;;4986751;28;20677;-65
2021/12/02 09:17:31;;;;;;;1.67;0.67;;;3.80;99.90;;;;;;4982291;28;20193;-65
2021/12/02 09:19:56;;;;;;;1.70;0.80;;;3.90;99.90;;;;;;4976215;28;20881;-65
2021/12/02 09:22:22;;;;;;;1.53;0.70;;;3.90;99.90;;;;;;4979468;28;20192;-65
2021/12/02 09:24:48;;;;;;;1.67;0.70;;;3.80;99.90;;;;;;4980133;28;20195;-65
2021/12/02 09:27:13;;;;;;;2.43;0.70;;;3.80;99.90;;;;;;4977304;28;20215;-66
2021/12/02 09:29:39;;;;;;;6.37;1.10;;;3.80;99.90;;;;;;4984300;28;20661;-65
2021/12/02 09:32:05;;;;;;;2.23;0.87;;;3.80;99.90;;;;;;4978612;28;20207;-65
2021/12/02 09:34:31;;;;;;;1.40;0.67;;;3.90;99.90;;;;;;4984350;28;20330;-65
2021/12/02 09:36:57;;;;;;;1.20;0.50;;;4.00;99.90;;;;;;4979818;28;20431;-65
2021/12/02 09:39:30;;;;;;;9.50;1.03;;;4.20;99.90;;;;;;4981671;28;20628;-65
2021/12/02 09:41:56;;;;;;;1.63;0.80;;;4.30;99.90;;;;;;4976930;28;20556;-65
2021/12/02 09:44:22;;;;;;;3.93;1.60;;;4.30;99.90;;;;;;4977745;28;20454;-65
2021/12/02 09:46:48;;;;;;;2.63;1.23;;;4.30;99.90;;;;;;4969133;28;20828;-65
2021/12/02 09:49:15;;;;;;;2.53;1.10;;;4.40;99.90;;;;;;4981427;28;20525;-65
2021/12/02 09:54:17;;;;;;;4.30;1.20;;;4.30;99.90;;;;;;4972076;28;20473;-65
2021/12/02 09:56:46;;;;;;;5.73;1.10;;;4.30;99.90;;;;;;4978807;28;20423;-65
2021/12/02 09:59:24;;;;;;;2.43;0.80;;;4.20;99.90;;;;;;4980671;28;20446;-65
2021/12/02 10:01:55;;;;;;;1.77;0.80;;;4.10;99.90;;;;;;4985141;28;20474;-64
2021/12/02 10:04:22;;;;;;;1.87;0.70;;;4.00;99.90;;;;;;4982910;28;20436;-65
2021/12/02 10:06:49;;;;;;;8.60;2.27;;;3.80;99.90;;;;;;4982085;28;20442;-65
2021/12/02 10:09:33;;;;;;;1.20;0.60;;;3.90;99.90;;;;;;4979013;28;20435;-65
2021/12/02 10:12:07;;;;;;;1.70;0.90;;;3.90;99.90;;;;;;4969461;28;20458;-65
2021/12/02 10:14:38;;;;;;;1.60;0.70;;;3.90;99.90;;;;;;4976594;28;20477;-64
2021/12/02 10:17:32;;;;;;;2.57;0.90;;;3.80;99.90;;;;;;4973972;28;20516;-64
2021/12/02 10:23:01;;;;;;;1.83;1.03;;;3.90;99.90;;;;;;4978786;28;20434;-65
2021/12/02 10:25:32;;;;;;;2.70;0.63;;;3.80;99.90;;;;;;4974112;28;20517;-65
2021/12/02 10:28:09;;;;;;;4.60;1.17;;;3.60;99.90;;;;;;4970851;28;20447;-65
2021/12/02 10:30:43;;;;;;;1.40;0.70;;;3.60;99.90;;;;;;4968686;28;20958;-65
2021/12/02 10:33:10;;;;;;;2.63;0.90;;;3.60;99.90;;;;;;4967422;28;20789;-64
2021/12/02 10:35:49;;;;;;;3.07;1.43;;;3.40;99.90;;;;;;4977060;28;20470;-64
2021/12/02 10:38:34;;;;;;;3.37;0.90;;;3.30;99.90;;;;;;4972235;28;20456;-64
2021/12/02 10:41:02;;;;;;;1.83;0.67;;;3.20;99.90;;;;;;4973421;28;20756;-64
2021/12/02 10:43:28;;;;;;;2.27;0.70;;;3.10;99.90;;;;;;4981147;28;20867;-64
2021/12/02 10:46:16;;;;;;;5.43;1.33;;;3.10;99.90;;;;;;4983217;28;20514;-64
2021/12/02 10:48:51;;;;;;;3.60;1.17;;;2.90;99.90;;;;;;4970822;28;20250;-64
2021/12/02 10:51:37;;;;;;;1.63;0.73;;;2.80;99.90;;;;;;4975711;28;20475;-64
2021/12/02 10:54:08;;;;;;;1.50;0.73;;;2.70;99.90;;;;;;4974469;28;20523;-64
2021/12/02 10:56:35;;;;;;;1.70;1.00;;;2.70;99.90;;;;;;4971698;28;20408;-64
2021/12/02 10:59:23;;;;;;;1.60;0.67;;;2.60;99.90;;;;;;4975106;28;20424;-63
2021/12/02 11:01:50;;;;;;;1.10;0.47;;;2.50;99.90;;;;;;4976497;28;20575;-64
2021/12/02 11:04:15;;;;;;;2.67;0.90;;;2.50;99.90;;;;;;4984159;28;20429;-64
2021/12/02 11:06:45;;;;;;;1.10;0.50;;;2.50;99.90;;;;;;4978266;28;20947;-64
2021/12/02 11:09:29;;;;;;;2.00;0.70;;;2.40;99.90;;;;;;4986876;28;20742;-64
2021/12/02 11:12:08;;;;;;;1.20;0.50;;;2.40;99.90;;;;;;4976669;28;20416;-64
2021/12/02 11:14:42;;;;;;;1.90;1.07;;;2.40;99.90;;;;;;4974856;28;20477;-64
2021/12/02 11:17:13;;;;;;;1.50;0.90;;;2.40;99.90;;;;;;4983201;28;20502;-64
2021/12/02 11:19:44;;;;;;;1.43;0.73;;;2.40;99.90;;;;;;4971958;28;20477;-64
2021/12/02 11:22:13;;;;;;;1.40;0.73;;;2.40;99.90;;;;;;4973535;28;20442;-64
2021/12/02 11:24:39;;;;;;;1.70;0.80;;;2.40;99.90;;;;;;4974543;28;20437;-64
2021/12/02 11:27:18;;;;;;;5.00;1.00;;;2.40;99.90;;;;;;4981956;28;20503;-64
2021/12/02 11:30:00;;;;;;;2.00;0.63;;;2.50;99.90;;;;;;4983374;28;20435;-64
2021/12/02 11:32:28;;;;;;;1.97;0.93;;;2.40;99.90;;;;;;4982924;28;20788;-64
2021/12/02 11:35:01;;;;;;;1.73;0.70;;;2.40;99.90;;;;;;4983528;28;20466;-64
2021/12/02 11:37:28;;;;;;;1.47;0.83;;;2.40;99.90;;;;;;4974242;28;20518;-64
2021/12/02 11:39:55;;;;;;;6.77;2.37;;;2.40;99.90;;;;;;4976364;28;20443;-64
2021/12/02 11:42:21;;;;;;;5.20;2.50;;;2.40;99.90;;;;;;4981357;28;20817;-64
2021/12/02 11:44:48;;;;;;;4.17;1.17;;;2.40;99.90;;;;;;4988728;28;20422;-64
2021/12/02 11:47:13;;;;;;;1.63;0.80;;;2.50;99.90;;;;;;4981401;28;20476;-64
2021/12/02 11:49:41;;;;;;;1.30;0.40;;;2.50;99.90;;;;;;4985282;28;20434;-64
2021/12/02 11:52:09;;;;;;;1.43;0.73;;;2.50;99.90;;;;;;4983909;28;20187;-64
2021/12/02 11:54:36;;;;;;;1.30;0.50;;;2.50;99.90;;;;;;4983477;28;20975;-64
2021/12/02 11:57:03;;;;;;;1.40;0.60;;;2.60;99.90;;;;;;4983008;28;20473;-64
2021/12/02 11:59:28;;;;;;;1.20;0.60;;;2.60;99.90;;;;;;4979220;28;20431;-67
2021/12/02 12:01:59;;;;;;;1.67;0.60;;;2.60;99.90;;;;;;4986827;28;20430;-64
2021/12/02 12:04:24;;;;;;;1.40;0.70;;;2.60;99.90;;;;;;4983290;28;20184;-64
2021/12/02 12:07:07;;;;;;;1.30;0.60;;;2.50;99.90;;;;;;4985883;28;20434;-64
2021/12/02 12:09:33;;;;;;;1.40;0.57;;;2.50;99.90;;;;;;4981447;28;20230;-64
2021/12/02 12:11:58;;;;;;;1.50;0.60;;;2.50;99.90;;;;;;4975871;28;20436;-64
2021/12/02 12:14:39;;;;;;;1.10;0.50;;;2.50;99.90;;;;;;4981632;28;20266;-64
2021/12/02 12:17:11;;;;;;;1.50;0.60;;;2.50;99.90;;;;;;4976814;28;20303;-63
2021/12/02 12:19:45;;;;;;;1.13;0.50;;;2.50;99.90;;;;;;4979580;28;20429;-66
2021/12/02 12:22:23;;;;;;;1.50;0.70;;;2.40;99.90;;;;;;4971050;28;20806;-66
2021/12/02 12:24:51;;;;;;;1.30;0.60;;;2.40;99.90;;;;;;4978759;28;20471;-66
2021/12/02 12:27:25;;;;;;;1.20;0.60;;;2.40;99.90;;;;;;4977062;28;20452;-66
2021/12/02 12:30:04;;;;;;;3.70;1.17;;;2.40;99.90;;;;;;4977401;28;20515;-66
2021/12/02 12:33:04;;;;;;;2.60;1.20;;;2.40;99.90;;;;;;4965012;28;20473;-66
2021/12/02 12:35:58;;;;;;;6.67;3.10;;;2.40;99.90;;;;;;4977758;28;20518;-66
2021/12/02 12:38:30;;;;;;;21.70;8.20;;;2.50;99.90;;;;;;4969145;28;20432;-66
2021/12/02 12:41:01;;;;;;;15.83;7.30;;;2.50;99.90;;;;;;4978906;28;20429;-66
2021/12/02 12:43:44;;;;;;;9.83;4.00;;;2.50;99.90;;;;;;4984520;28;20427;-66
2021/12/02 12:46:16;;;;;;;5.63;2.03;;;2.60;99.90;;;;;;4969800;28;20451;-66
2021/12/02 12:48:43;;;;;;;5.63;1.60;;;2.60;99.90;;;;;;4979377;28;20499;-66
2021/12/02 12:51:28;;;;;;;6.67;3.00;;;2.60;99.90;;;;;;4974975;28;20855;-66
2021/12/02 12:53:55;;;;;;;2.43;1.00;;;2.60;99.90;;;;;;4966497;28;20425;-66
2021/12/02 12:56:33;;;;;;;4.73;1.43;;;2.70;99.90;;;;;;4965335;28;20533;-66
2021/12/02 12:59:00;;;;;;;2.33;1.40;;;2.70;99.90;;;;;;4981896;28;20434;-66
2021/12/02 13:01:27;;;;;;;4.20;2.27;;;2.80;99.90;;;;;;4978794;28;20920;-66
2021/12/02 13:04:13;;;;;;;3.80;1.87;;;2.80;99.90;;;;;;4977133;28;20466;-66
2021/12/02 13:06:49;;;;;;;3.33;0.80;;;2.80;99.90;;;;;;4966819;28;20529;-66
2021/12/02 13:09:36;;;;;;;1.90;0.87;;;2.90;99.90;;;;;;4974776;28;20510;-64
2021/12/02 13:12:03;;;;;;;2.40;0.80;;;2.80;99.90;;;;;;4965302;28;20429;-66
2021/12/02 13:14:29;;;;;;;2.37;1.53;;;2.90;99.90;;;;;;4971374;28;20453;-66
2021/12/02 13:16:55;;;;;;;2.73;1.10;;;2.90;99.90;;;;;;4971851;28;20443;-66
2021/12/02 13:19:21;;;;;;;1.63;0.80;;;3.00;99.90;;;;;;4983248;28;20531;-66
2021/12/02 13:21:58;;;;;;;1.87;0.80;;;2.90;99.90;;;;;;4982919;28;20304;-66
2021/12/02 13:24:33;;;;;;;10.73;2.70;;;2.90;99.90;;;;;;4969762;28;20545;-66
2021/12/02 13:27:02;;;;;;;1.40;0.67;;;2.90;99.90;;;;;;4983271;28;20418;-66
2021/12/02 13:29:34;;;;;;;1.50;0.70;;;2.90;99.90;;;;;;4980460;28;20586;-66
2021/12/02 13:32:09;;;;;;;6.87;2.00;;;2.90;99.90;;;;;;4984021;28;20488;-66
2021/12/02 13:34:34;;;;;;;1.50;0.73;;;2.90;99.90;;;;;;4973442;28;20474;-66
2021/12/02 13:37:09;;;;;;;2.97;1.20;;;2.80;99.90;;;;;;4975220;28;20427;-66